createdAt,value
2018-12-20T00:00:46.001Z,7.90
2018-12-20T00:03:15.410Z,7.90
2018-12-20T00:05:44.711Z,7.90
2018-12-20T00:08:14.106Z,8.00
2018-12-20T00:10:43.540Z,8.00
2018-12-20T00:13:12.804Z,8.00
2018-12-20T00:15:41.992Z,8.00
2018-12-20T00:18:11.175Z,8.00
2018-12-20T00:20:40.414Z,8.00
2018-12-20T00:23:09.799Z,8.00
2018-12-20T00:25:39.013Z,8.00
2018-12-20T00:28:08.179Z,8.00
2018-12-20T00:30:37.451Z,8.00
2018-12-20T00:33:06.600Z,8.00
2018-12-20T00:35:35.821Z,8.00
2018-12-20T00:38:06.030Z,8.00
2018-12-20T00:40:35.315Z,8.00
2018-12-20T00:43:04.548Z,7.90
2018-12-20T00:45:33.746Z,7.90
2018-12-20T00:48:03.104Z,7.80
2018-12-20T00:50:32.295Z,7.70
2018-12-20T00:53:01.454Z,7.60
2018-12-20T00:55:30.610Z,7.60
2018-12-20T00:57:59.793Z,7.50
2018-12-20T01:00:28.966Z,7.50
2018-12-20T01:02:58.258Z,7.50
2018-12-20T01:05:27.583Z,7.50
2018-12-20T01:07:56.726Z,7.50
2018-12-20T01:10:25.905Z,7.50
2018-12-20T01:12:55.063Z,7.50
2018-12-20T01:15:24.485Z,7.50
2018-12-20T01:17:53.665Z,7.60
2018-12-20T01:20:23.280Z,7.60
2018-12-20T01:22:52.513Z,7.60
2018-12-20T01:25:21.785Z,7.60
2018-12-20T01:27:51.012Z,7.70
2018-12-20T01:30:20.269Z,7.70
2018-12-20T01:32:49.439Z,7.80
2018-12-20T01:35:18.599Z,7.90
2018-12-20T01:37:47.888Z,8.00
2018-12-20T01:40:17.266Z,8.10
2018-12-20T01:42:46.570Z,8.20
2018-12-20T01:45:15.847Z,8.30
2018-12-20T01:47:45.081Z,8.30
2018-12-20T01:50:14.244Z,8.40
2018-12-20T01:52:43.904Z,8.50
2018-12-20T01:55:13.152Z,8.50
2018-12-20T01:57:42.406Z,8.60
2018-12-20T02:00:12.057Z,8.60
2018-12-20T02:02:41.289Z,8.70
2018-12-20T02:05:10.427Z,8.70
2018-12-20T02:07:39.578Z,8.70
2018-12-20T02:10:08.780Z,8.70
2018-12-20T02:12:37.956Z,8.80
2018-12-20T02:15:07.548Z,8.80
2018-12-20T02:17:36.835Z,8.90
2018-12-20T02:20:06.543Z,8.90
2018-12-20T02:22:35.745Z,9.00
2018-12-20T02:25:05.699Z,9.00
2018-12-20T02:27:35.067Z,9.00
2018-12-20T02:30:04.464Z,9.00
2018-12-20T02:32:33.633Z,9.00
2018-12-20T02:35:03.120Z,9.00
2018-12-20T02:37:32.428Z,9.00
2018-12-20T02:40:01.573Z,9.10
2018-12-20T02:42:30.937Z,9.10
2018-12-20T02:45:00.301Z,9.10
2018-12-20T02:47:29.656Z,9.10
2018-12-20T02:49:58.945Z,9.10
2018-12-20T02:52:28.218Z,9.10
2018-12-20T02:54:57.407Z,9.10
2018-12-20T02:57:26.583Z,9.10
2018-12-20T02:59:55.889Z,9.10
2018-12-20T03:02:25.162Z,9.00
2018-12-20T03:04:54.312Z,9.00
2018-12-20T03:07:23.442Z,9.00
2018-12-20T03:09:52.735Z,9.00
2018-12-20T03:12:22.302Z,9.00
2018-12-20T03:14:51.623Z,9.00
2018-12-20T03:17:20.942Z,9.00
2018-12-20T03:19:50.169Z,8.90
2018-12-20T03:22:19.343Z,9.00
2018-12-20T03:24:48.723Z,9.00
2018-12-20T03:27:18.081Z,9.00
2018-12-20T03:29:47.422Z,9.00
2018-12-20T03:32:16.716Z,8.90
2018-12-20T03:34:45.994Z,9.00
2018-12-20T03:37:15.362Z,9.00
2018-12-20T03:39:44.584Z,9.00
2018-12-20T03:42:13.946Z,9.00
2018-12-20T03:44:43.452Z,9.00
2018-12-20T03:47:12.824Z,9.00
2018-12-20T03:49:42.044Z,9.00
2018-12-20T03:52:11.279Z,9.00
2018-12-20T03:54:40.573Z,9.00
2018-12-20T03:57:09.801Z,9.00
2018-12-20T03:59:38.980Z,8.90
2018-12-20T04:02:08.481Z,8.90
2018-12-20T04:04:37.729Z,8.90
2018-12-20T04:07:07.091Z,8.80
2018-12-20T04:09:36.627Z,8.80
2018-12-20T04:12:06.005Z,8.80
2018-12-20T04:14:35.340Z,8.80
2018-12-20T04:17:04.716Z,8.80
2018-12-20T04:19:33.980Z,8.80
2018-12-20T04:22:03.189Z,8.80
2018-12-20T04:24:32.685Z,8.80
2018-12-20T04:27:01.981Z,8.90
2018-12-20T04:29:31.407Z,8.90
2018-12-20T04:32:00.730Z,8.90
2018-12-20T04:34:29.909Z,8.90
2018-12-20T04:36:59.138Z,8.90
2018-12-20T04:39:28.328Z,8.80
2018-12-20T04:41:57.562Z,8.90
2018-12-20T04:44:26.760Z,8.80
2018-12-20T04:46:56.050Z,8.90
2018-12-20T04:49:25.381Z,8.80
2018-12-20T04:51:54.632Z,8.80
2018-12-20T04:54:23.981Z,8.90
2018-12-20T04:56:53.394Z,8.80
2018-12-20T04:59:23.513Z,8.80
2018-12-20T05:01:52.797Z,8.80
2018-12-20T05:04:22.064Z,8.80
2018-12-20T05:06:51.210Z,8.80
2018-12-20T05:09:20.398Z,8.80
2018-12-20T05:11:49.650Z,8.90
2018-12-20T05:14:19.093Z,8.90
2018-12-20T05:16:48.429Z,8.90
2018-12-20T05:19:17.778Z,8.90
2018-12-20T05:21:47.060Z,8.90
2018-12-20T05:24:16.457Z,8.90
2018-12-20T05:26:45.988Z,8.90
2018-12-20T05:29:15.147Z,8.90
2018-12-20T05:31:44.468Z,8.90
2018-12-20T05:34:13.703Z,8.90
2018-12-20T05:36:43.182Z,8.90
2018-12-20T05:39:12.370Z,8.90
2018-12-20T05:41:41.764Z,8.90
2018-12-20T05:44:11.084Z,8.90
2018-12-20T05:46:40.864Z,8.90
2018-12-20T05:49:10.164Z,8.90
2018-12-20T05:51:39.638Z,8.90
2018-12-20T05:54:08.967Z,8.90
2018-12-20T05:56:38.112Z,8.90
2018-12-20T05:59:07.291Z,8.90
2018-12-20T06:01:36.597Z,8.90
2018-12-20T06:04:06.473Z,8.90
2018-12-20T06:06:35.724Z,8.80
2018-12-20T06:09:07.316Z,8.90
2018-12-20T06:11:36.572Z,8.80
2018-12-20T06:14:06.003Z,8.80
2018-12-20T06:16:35.391Z,8.80
2018-12-20T06:19:04.999Z,8.80
2018-12-20T06:21:34.235Z,8.80
2018-12-20T06:24:03.399Z,8.80
2018-12-20T06:26:32.570Z,8.80
2018-12-20T06:29:01.711Z,8.80
2018-12-20T06:31:30.870Z,8.80
2018-12-20T06:34:00.031Z,8.80
2018-12-20T06:36:29.172Z,8.80
2018-12-20T06:38:58.341Z,8.80
2018-12-20T06:41:27.521Z,8.80
2018-12-20T06:43:56.706Z,8.70
2018-12-20T06:46:26.865Z,8.70
2018-12-20T06:48:56.064Z,8.60
2018-12-20T06:51:25.238Z,8.50
2018-12-20T06:53:54.410Z,8.50
2018-12-20T06:56:24.689Z,8.40
2018-12-20T06:58:53.863Z,8.30
2018-12-20T07:01:22.994Z,8.20
2018-12-20T07:03:52.159Z,8.20
2018-12-20T07:06:21.295Z,8.10
2018-12-20T07:08:50.526Z,8.10
2018-12-20T07:11:19.709Z,8.20
2018-12-20T07:13:48.855Z,8.20
2018-12-20T07:16:18.032Z,8.30
2018-12-20T07:18:47.189Z,8.30
2018-12-20T07:21:16.637Z,8.30
2018-12-20T07:23:45.791Z,8.40
2018-12-20T07:26:14.939Z,8.40
2018-12-20T07:28:44.136Z,8.40
2018-12-20T07:31:13.301Z,8.40
2018-12-20T07:33:42.431Z,8.40
2018-12-20T07:36:11.590Z,8.40
2018-12-20T07:38:40.720Z,8.30
2018-12-20T07:41:09.892Z,8.20
2018-12-20T07:43:39.167Z,8.20
2018-12-20T07:46:08.339Z,8.10
2018-12-20T07:48:37.478Z,8.10
2018-12-20T07:51:06.615Z,8.00
2018-12-20T07:53:36.428Z,8.00
2018-12-20T07:56:05.616Z,7.90
2018-12-20T07:58:34.772Z,7.90
2018-12-20T08:01:04.553Z,7.90
2018-12-20T08:03:33.711Z,7.90
2018-12-20T08:06:02.876Z,7.90
2018-12-20T08:08:32.024Z,7.90
2018-12-20T08:11:05.201Z,7.90
2018-12-20T08:13:34.344Z,7.90
2018-12-20T08:16:03.529Z,7.90
2018-12-20T08:18:32.677Z,8.00
2018-12-20T08:21:01.823Z,8.00
2018-12-20T08:23:30.976Z,8.00
2018-12-20T08:26:00.147Z,8.10
2018-12-20T08:28:29.288Z,8.10
2018-12-20T08:30:58.446Z,8.20
2018-12-20T08:33:27.591Z,8.30
2018-12-20T08:35:56.775Z,8.40
2018-12-20T08:38:26.427Z,8.50
2018-12-20T08:40:55.785Z,8.70
2018-12-20T08:43:24.946Z,8.80
2018-12-20T08:45:54.135Z,8.90
2018-12-20T08:48:23.324Z,9.00
2018-12-20T08:50:52.498Z,9.00
2018-12-20T08:53:21.735Z,9.00
2018-12-20T08:55:50.918Z,9.10
2018-12-20T08:58:20.166Z,9.10
2018-12-20T09:00:49.316Z,9.10
2018-12-20T09:03:18.473Z,9.10
2018-12-20T09:05:47.617Z,9.20
2018-12-20T09:08:16.778Z,9.20
2018-12-20T09:10:45.929Z,9.20
2018-12-20T09:13:15.093Z,9.20
2018-12-20T09:15:44.250Z,9.20
2018-12-20T09:18:13.396Z,9.20
2018-12-20T09:20:42.530Z,9.30
2018-12-20T09:23:11.698Z,9.30
2018-12-20T09:25:40.915Z,9.30
2018-12-20T09:28:10.073Z,9.30
2018-12-20T09:30:39.227Z,9.30
2018-12-20T09:33:08.987Z,9.30
2018-12-20T09:35:38.165Z,9.30
2018-12-20T09:38:07.325Z,9.30
2018-12-20T09:40:36.498Z,9.30
2018-12-20T09:43:05.659Z,9.30
2018-12-20T09:45:34.809Z,9.40
2018-12-20T09:48:06.206Z,9.40
2018-12-20T09:50:35.425Z,9.40
2018-12-20T09:53:04.594Z,9.40
2018-12-20T09:55:33.779Z,9.40
2018-12-20T09:58:02.936Z,9.40
2018-12-20T10:00:32.077Z,9.40
2018-12-20T10:03:01.232Z,9.50
2018-12-20T10:05:30.372Z,9.50
2018-12-20T10:07:59.514Z,9.50
2018-12-20T10:10:28.683Z,9.60
2018-12-20T10:12:57.853Z,9.60
2018-12-20T10:15:27.034Z,9.60
2018-12-20T10:17:56.183Z,9.70
2018-12-20T10:20:25.483Z,9.70
2018-12-20T10:22:54.631Z,9.70
2018-12-20T10:25:23.773Z,9.70
2018-12-20T10:27:52.939Z,9.80
2018-12-20T10:30:22.090Z,9.80
2018-12-20T10:32:51.240Z,9.80
2018-12-20T10:35:20.478Z,9.90
2018-12-20T10:37:49.633Z,9.90
2018-12-20T10:40:18.805Z,10.00
2018-12-20T10:42:47.965Z,10.00
2018-12-20T10:45:17.166Z,10.00
2018-12-20T10:47:46.350Z,10.00
2018-12-20T10:50:15.513Z,10.00
2018-12-20T10:52:44.674Z,10.10
2018-12-20T10:55:13.842Z,10.10
2018-12-20T10:57:43.006Z,10.00
2018-12-20T11:00:12.418Z,10.00
2018-12-20T11:02:47.032Z,9.80
2018-12-20T11:05:24.972Z,9.70
2018-12-20T11:07:59.494Z,9.70
2018-12-20T11:10:29.319Z,9.50
2018-12-20T11:13:00.549Z,9.40
2018-12-20T11:15:29.712Z,9.30
2018-12-20T11:17:58.881Z,9.30
2018-12-20T11:20:28.204Z,9.30
2018-12-20T11:22:57.375Z,9.20
2018-12-20T11:25:26.761Z,9.10
2018-12-20T11:27:55.923Z,9.10
2018-12-20T11:30:25.065Z,9.10
2018-12-20T11:32:54.221Z,9.10
2018-12-20T11:35:23.725Z,9.00
2018-12-20T11:37:52.881Z,9.00
2018-12-20T11:40:22.021Z,9.00
2018-12-20T11:42:51.184Z,9.10
2018-12-20T11:45:20.354Z,9.00
2018-12-20T11:47:49.529Z,9.00
2018-12-20T11:50:18.693Z,9.00
2018-12-20T11:52:48.857Z,9.10
2018-12-20T11:55:18.111Z,9.10
2018-12-20T11:57:47.340Z,9.20
2018-12-20T12:00:16.564Z,9.20
2018-12-20T12:02:45.722Z,9.20
2018-12-20T12:05:14.903Z,9.30
2018-12-20T12:07:44.089Z,9.30
2018-12-20T12:10:13.275Z,9.40
2018-12-20T12:12:42.456Z,9.40
2018-12-20T12:15:11.616Z,9.50
2018-12-20T12:17:40.797Z,9.50
2018-12-20T12:20:10.256Z,9.50
2018-12-20T12:22:39.473Z,9.50
2018-12-20T12:25:08.971Z,9.60
2018-12-20T12:27:38.135Z,9.60
2018-12-20T12:30:09.946Z,9.70
2018-12-20T12:32:45.888Z,9.80
2018-12-20T12:35:15.907Z,9.90
2018-12-20T12:37:46.012Z,10.00
2018-12-20T12:40:15.215Z,10.00
2018-12-20T12:42:45.713Z,10.00
2018-12-20T12:45:14.979Z,10.00
2018-12-20T12:47:49.527Z,10.20
2018-12-20T12:50:18.811Z,10.40
2018-12-20T12:52:48.018Z,10.50
2018-12-20T12:55:17.214Z,10.70
2018-12-20T12:57:46.510Z,10.80
2018-12-20T13:00:20.369Z,10.80
2018-12-20T13:02:49.671Z,10.90
2018-12-20T13:05:19.303Z,11.00
2018-12-20T13:07:48.539Z,11.00
2018-12-20T13:10:17.777Z,11.00
2018-12-20T13:12:47.019Z,11.00
2018-12-20T13:15:16.559Z,11.00
2018-12-20T13:17:46.058Z,10.90
2018-12-20T13:20:16.269Z,11.00
2018-12-20T13:22:45.556Z,10.90
2018-12-20T13:25:14.896Z,10.90
2018-12-20T13:27:44.113Z,11.00
2018-12-20T13:30:13.894Z,11.00
2018-12-20T13:32:43.162Z,11.10
2018-12-20T13:35:12.546Z,11.10
2018-12-20T13:37:41.790Z,11.10
2018-12-20T13:40:12.211Z,11.10
2018-12-20T13:42:41.429Z,11.10
2018-12-20T13:45:10.692Z,11.10
2018-12-20T13:47:39.955Z,11.00
2018-12-20T13:50:09.598Z,11.00
2018-12-20T13:52:38.931Z,11.00
2018-12-20T13:55:08.297Z,10.90
2018-12-20T13:57:37.589Z,10.90
2018-12-20T14:00:10.909Z,10.90
2018-12-20T14:02:40.173Z,10.90
2018-12-20T14:05:09.452Z,11.00
2018-12-20T14:07:39.001Z,11.00
2018-12-20T14:10:09.161Z,10.90
2018-12-20T14:12:38.616Z,10.90
2018-12-20T14:15:08.776Z,11.00
2018-12-20T14:17:38.195Z,10.90
2018-12-20T14:20:08.231Z,11.00
2018-12-20T14:22:37.524Z,11.00
2018-12-20T14:25:07.131Z,11.10
2018-12-20T14:27:36.596Z,11.10
2018-12-20T14:30:08.442Z,11.20
2018-12-20T14:32:37.739Z,11.20
2018-12-20T14:35:07.052Z,11.10
2018-12-20T14:37:36.312Z,11.10
2018-12-20T14:40:07.597Z,11.00
2018-12-20T14:42:37.997Z,10.90
2018-12-20T14:45:07.552Z,10.80
2018-12-20T14:47:37.908Z,10.80
2018-12-20T14:50:08.918Z,10.70
2018-12-20T14:52:38.604Z,10.70
2018-12-20T14:55:09.100Z,10.60
2018-12-20T14:57:38.430Z,10.70
2018-12-20T15:00:10.953Z,10.60
2018-12-20T15:02:42.138Z,10.60
2018-12-20T15:05:11.540Z,10.60
2018-12-20T15:07:40.846Z,10.50
2018-12-20T15:10:11.602Z,10.50
2018-12-20T15:12:41.532Z,10.50
2018-12-20T15:15:10.823Z,10.50
2018-12-20T15:17:40.123Z,10.40
2018-12-20T15:20:09.878Z,10.40
2018-12-20T15:22:39.214Z,10.30
2018-12-20T15:25:08.641Z,10.20
2018-12-20T15:27:37.948Z,10.10
2018-12-20T15:30:08.681Z,10.00
2018-12-20T15:32:37.973Z,10.00
2018-12-20T15:35:07.511Z,9.90
2018-12-20T15:37:37.899Z,9.90
2018-12-20T15:40:08.635Z,9.80
2018-12-20T15:42:38.920Z,9.70
2018-12-20T15:45:09.116Z,9.70
2018-12-20T15:47:38.443Z,9.60
2018-12-20T15:50:12.188Z,9.60
2018-12-20T15:52:42.856Z,9.60
2018-12-20T15:55:12.157Z,9.60
2018-12-20T15:57:41.589Z,9.60
2018-12-20T16:00:11.219Z,9.60
2018-12-20T16:02:40.503Z,9.60
2018-12-20T16:05:10.030Z,9.60
2018-12-20T16:07:39.313Z,9.60
2018-12-20T16:10:09.994Z,9.60
2018-12-20T16:12:39.640Z,9.60
2018-12-20T16:15:09.139Z,9.60
2018-12-20T16:17:38.437Z,9.60
2018-12-20T16:20:08.230Z,9.50
2018-12-20T16:22:37.485Z,9.50
2018-12-20T16:25:07.918Z,9.40
2018-12-20T16:27:37.189Z,9.40
2018-12-20T16:30:08.803Z,9.40
2018-12-20T16:32:38.136Z,9.30
2018-12-20T16:35:08.449Z,9.30
2018-12-20T16:37:37.724Z,9.30
2018-12-20T16:40:07.413Z,9.20
2018-12-20T16:42:36.686Z,9.20
2018-12-20T16:45:07.322Z,9.20
2018-12-20T16:47:37.729Z,9.10
2018-12-20T16:50:09.146Z,9.10
2018-12-20T16:52:38.431Z,9.10
2018-12-20T16:55:08.680Z,9.10
2018-12-20T16:57:37.989Z,9.10
2018-12-20T17:00:09.574Z,9.10
2018-12-20T17:02:38.966Z,9.00
2018-12-20T17:05:08.398Z,9.00
2018-12-20T17:07:37.667Z,9.00
2018-12-20T17:10:07.720Z,9.00
2018-12-20T17:12:37.057Z,9.00
2018-12-20T17:15:06.682Z,9.00
2018-12-20T17:17:35.970Z,9.00
2018-12-20T17:20:07.369Z,9.00
2018-12-20T17:22:36.930Z,8.90
2018-12-20T17:25:06.370Z,8.90
2018-12-20T17:27:37.148Z,8.90
2018-12-20T17:30:08.336Z,8.90
2018-12-20T17:32:37.619Z,8.80
2018-12-20T17:35:07.192Z,8.80
2018-12-20T17:37:36.483Z,8.80
2018-12-20T17:40:06.759Z,8.80
2018-12-20T17:42:36.051Z,8.80
2018-12-20T17:45:07.030Z,8.70
2018-12-20T17:47:37.345Z,8.70
2018-12-20T17:50:07.769Z,8.70
2018-12-20T17:52:37.043Z,8.70
2018-12-20T17:55:06.516Z,8.70
2018-12-20T17:57:35.951Z,8.60
2018-12-20T18:00:06.869Z,8.60
2018-12-20T18:02:36.177Z,8.60
2018-12-20T18:05:07.013Z,8.50
2018-12-20T18:07:36.748Z,8.40
2018-12-20T18:10:09.761Z,8.50
2018-12-20T18:12:39.182Z,8.50
2018-12-20T18:15:10.523Z,8.50
2018-12-20T18:17:40.676Z,8.50
2018-12-20T18:20:11.263Z,8.50
2018-12-20T18:22:40.745Z,8.50
2018-12-20T18:25:10.194Z,8.50
2018-12-20T18:27:39.508Z,8.50
2018-12-20T18:30:11.159Z,8.50
2018-12-20T18:32:41.573Z,8.60
2018-12-20T18:35:10.952Z,8.50
2018-12-20T18:37:41.343Z,8.60
2018-12-20T18:40:10.732Z,8.50
2018-12-20T18:42:40.178Z,8.50
2018-12-20T18:45:09.885Z,8.50
2018-12-20T18:47:40.284Z,8.50
2018-12-20T18:50:10.854Z,8.50
2018-12-20T18:52:40.133Z,8.50
2018-12-20T18:55:09.467Z,8.50
2018-12-20T18:57:38.860Z,8.50
2018-12-20T19:00:10.974Z,8.50
2018-12-20T19:02:40.284Z,8.60
2018-12-20T19:05:09.593Z,8.60
2018-12-20T19:07:39.067Z,8.70
2018-12-20T19:10:10.133Z,8.70
2018-12-20T19:12:40.601Z,8.70
2018-12-20T19:15:10.318Z,8.80
2018-12-20T19:17:39.613Z,8.80
2018-12-20T19:20:16.045Z,8.70
2018-12-20T19:22:41.289Z,8.70
2018-12-20T19:25:10.614Z,8.60
2018-12-20T19:27:40.747Z,8.50
2018-12-20T19:30:12.381Z,8.50
2018-12-20T19:32:41.674Z,8.40
2018-12-20T19:35:11.004Z,8.40
2018-12-20T19:37:40.298Z,8.40
2018-12-20T19:40:11.734Z,8.40
2018-12-20T19:42:41.010Z,8.50
2018-12-20T19:45:10.436Z,8.50
2018-12-20T19:47:40.748Z,8.50
2018-12-20T19:50:11.026Z,8.40
2018-12-20T19:52:40.318Z,8.40
2018-12-20T19:55:09.743Z,8.30
2018-12-20T19:57:39.158Z,8.30
2018-12-20T20:00:12.223Z,8.30
2018-12-20T20:02:41.550Z,8.30
2018-12-20T20:05:11.177Z,8.30
2018-12-20T20:07:40.461Z,8.30
2018-12-20T20:10:11.411Z,8.30
2018-12-20T20:12:40.739Z,8.20
2018-12-20T20:15:16.451Z,8.20
2018-12-20T20:17:43.290Z,8.10
2018-12-20T20:20:14.222Z,8.10
2018-12-20T20:22:43.865Z,8.10
2018-12-20T20:25:13.207Z,8.10
2018-12-20T20:27:42.564Z,8.10
2018-12-20T20:30:14.444Z,8.10
2018-12-20T20:32:43.844Z,8.00
2018-12-20T20:35:13.249Z,8.00
2018-12-20T20:37:42.549Z,8.00
2018-12-20T20:40:12.299Z,7.90
2018-12-20T20:42:41.641Z,7.90
2018-12-20T20:45:10.933Z,7.90
2018-12-20T20:47:40.250Z,7.90
2018-12-20T20:50:09.960Z,7.90
2018-12-20T20:52:39.278Z,7.90
2018-12-20T20:55:09.229Z,7.90
2018-12-20T20:57:38.538Z,7.90
2018-12-20T21:00:11.324Z,7.90
2018-12-20T21:02:40.578Z,7.90
2018-12-20T21:05:10.489Z,7.90
2018-12-20T21:07:39.962Z,8.00
2018-12-20T21:10:11.388Z,8.00
2018-12-20T21:12:40.787Z,8.10
2018-12-20T21:15:13.084Z,8.10
2018-12-20T21:17:42.384Z,8.20
2018-12-20T21:20:13.315Z,8.30
2018-12-20T21:22:43.016Z,8.40
2018-12-20T21:25:13.320Z,8.40
2018-12-20T21:27:42.625Z,8.50
2018-12-20T21:30:12.042Z,8.60
2018-12-20T21:32:41.319Z,8.60
2018-12-20T21:35:11.581Z,8.70
2018-12-20T21:37:40.862Z,8.70
2018-12-20T21:40:10.411Z,8.80
2018-12-20T21:42:40.768Z,8.80
2018-12-20T21:45:10.466Z,8.90
2018-12-20T21:47:40.237Z,8.90
2018-12-20T21:50:11.121Z,9.00
2018-12-20T21:52:40.354Z,9.00
2018-12-20T21:55:10.407Z,9.00
2018-12-20T21:57:39.700Z,9.00
2018-12-20T22:00:10.831Z,9.10
2018-12-20T22:02:41.004Z,9.10
2018-12-20T22:05:10.256Z,9.10
2018-12-20T22:07:39.502Z,9.10
2018-12-20T22:10:09.235Z,9.20
2018-12-20T22:12:38.401Z,9.20
2018-12-20T22:15:07.833Z,9.20
2018-12-20T22:17:37.077Z,9.20
2018-12-20T22:20:07.985Z,9.20
2018-12-20T22:22:37.208Z,9.20
2018-12-20T22:25:09.879Z,9.20
2018-12-20T22:27:39.048Z,9.20
2018-12-20T22:30:09.758Z,9.20
2018-12-20T22:32:38.949Z,9.10
2018-12-20T22:35:08.307Z,9.10
2018-12-20T22:37:37.735Z,9.00
2018-12-20T22:40:08.199Z,9.00
2018-12-20T22:42:37.394Z,8.90
2018-12-20T22:45:08.181Z,8.90
2018-12-20T22:47:37.393Z,8.90
2018-12-20T22:50:09.088Z,8.90
2018-12-20T22:52:38.308Z,8.80
2018-12-20T22:55:07.735Z,8.80
2018-12-20T22:57:36.956Z,8.90
2018-12-20T23:00:08.189Z,8.90
2018-12-20T23:02:37.408Z,8.90
2018-12-20T23:05:07.068Z,9.00
2018-12-20T23:07:36.270Z,9.00
2018-12-20T23:10:06.039Z,9.00
2018-12-20T23:12:35.290Z,9.00
2018-12-20T23:15:05.137Z,8.90
2018-12-20T23:17:36.738Z,8.90
2018-12-20T23:20:07.090Z,8.90
2018-12-20T23:22:36.261Z,8.90
2018-12-20T23:25:05.681Z,8.90
2018-12-20T23:27:34.891Z,8.90
2018-12-20T23:30:04.926Z,8.90
2018-12-20T23:32:34.818Z,8.90
2018-12-20T23:35:04.129Z,8.90
2018-12-20T23:37:33.305Z,8.90
2018-12-20T23:40:02.524Z,8.90
2018-12-20T23:42:36.779Z,8.90
2018-12-20T23:45:07.697Z,8.90
2018-12-20T23:47:37.691Z,8.90
2018-12-20T23:50:07.066Z,8.90
2018-12-20T23:52:36.267Z,8.90
2018-12-20T23:55:05.796Z,8.90
2018-12-20T23:57:34.993Z,8.80
